Time;durP1;ratioP1;P1;durP2;ratioP2;P2;SDS_P1;SDS_P2;PMS_P1;PMS_P2;Temp;Humidity;BMP_temperature;BMP_pressure;BME280_temperature;BME280_humidity;BME280_pressure;Samples;Min_cycle;Max_cycle;Signal;HPM_P1;HPM_P2
2021/12/28 00:01:10;;;;;;;34.08;21.63;;;5.40;99.90;;;;;;5060669;28;20470;-67
2021/12/28 00:03:38;;;;;;;44.97;24.23;;;5.50;99.90;;;;;;5065516;28;20074;-67
2021/12/28 00:06:05;;;;;;;35.05;23.17;;;5.50;99.90;;;;;;5061505;28;20112;-67
2021/12/28 00:08:31;;;;;;;37.72;22.88;;;5.50;99.90;;;;;;5060761;28;20044;-68
2021/12/28 00:10:57;;;;;;;44.45;25.65;;;5.50;99.90;;;;;;5065005;28;20585;-67
2021/12/28 00:13:24;;;;;;;40.25;24.55;;;5.50;99.90;;;;;;5059457;28;20041;-67
2021/12/28 00:16:12;;;;;;;42.53;27.65;;;5.60;99.90;;;;;;5062467;28;20106;-67
2021/12/28 00:18:36;;;;;;;50.08;29.30;;;5.60;99.90;;;;;;5062725;28;20080;-67
2021/12/28 00:21:05;;;;;;;63.38;32.80;;;5.70;99.90;;;;;;5063476;28;20096;-67
2021/12/28 00:23:41;;;;;;;59.72;33.20;;;5.70;99.90;;;;;;5059547;28;20052;-67
2021/12/28 00:26:11;;;;;;;68.15;34.85;;;5.80;99.90;;;;;;5063553;28;20187;-68
2021/12/28 00:28:36;;;;;;;51.90;32.30;;;5.90;99.90;;;;;;5065531;28;20423;-68
2021/12/28 00:31:04;;;;;;;56.17;34.17;;;6.00;99.90;;;;;;5058864;28;20048;-68
2021/12/28 00:33:29;;;;;;;73.28;38.33;;;6.00;99.90;;;;;;5059589;28;20385;-68
2021/12/28 00:35:55;;;;;;;64.18;35.55;;;6.10;99.90;;;;;;5064597;28;20044;-68
2021/12/28 00:38:24;;;;;;;71.40;37.78;;;6.10;99.90;;;;;;5058820;28;20047;-68
2021/12/28 00:40:55;;;;;;;55.53;33.72;;;6.10;99.90;;;;;;5061262;28;20082;-68
2021/12/28 00:43:21;;;;;;;68.50;36.92;;;6.20;99.90;;;;;;5067562;28;20036;-67
2021/12/28 00:45:48;;;;;;;60.60;34.35;;;6.20;99.90;;;;;;5069760;28;20415;-67
2021/12/28 00:48:15;;;;;;;72.32;37.72;;;6.10;99.90;;;;;;5068096;28;20070;-67
2021/12/28 00:50:41;;;;;;;63.85;36.47;;;6.20;99.90;;;;;;5069021;28;20040;-68
2021/12/28 00:53:08;;;;;;;61.20;34.45;;;6.30;99.90;;;;;;5059056;28;20222;-67
2021/12/28 00:55:34;;;;;;;71.78;37.65;;;6.30;99.90;;;;;;5064700;28;20044;-68
2021/12/28 00:57:59;;;;;;;69.68;37.90;;;6.20;99.90;;;;;;5043700;28;20545;-68
2021/12/28 01:00:31;;;;;;;136.52;47.13;;;6.30;99.90;;;;;;5050789;28;20032;-68
2021/12/28 01:02:58;;;;;;;83.45;39.70;;;6.30;99.90;;;;;;5061590;28;20043;-68
2021/12/28 01:05:24;;;;;;;84.75;40.00;;;6.30;99.90;;;;;;5066176;28;20177;-68
2021/12/28 01:07:50;;;;;;;89.85;42.22;;;6.30;99.90;;;;;;5067169;28;20059;-68
2021/12/28 01:10:24;;;;;;;82.70;42.80;;;6.30;99.90;;;;;;5065708;28;20044;-68
2021/12/28 01:12:52;;;;;;;107.53;45.72;;;6.40;99.90;;;;;;5080078;28;20075;-68
2021/12/28 01:15:19;;;;;;;135.95;50.75;;;6.40;99.90;;;;;;5065365;28;20136;-68
2021/12/28 01:17:45;;;;;;;97.38;44.83;;;6.40;99.90;;;;;;5065545;28;20044;-68
2021/12/28 01:20:13;;;;;;;91.10;45.30;;;6.50;99.90;;;;;;5065683;28;20090;-68
2021/12/28 01:22:41;;;;;;;161.70;52.47;;;6.40;99.90;;;;;;5066674;28;20028;-68
2021/12/28 01:25:08;;;;;;;102.97;44.35;;;6.50;99.90;;;;;;5065165;28;20041;-68
2021/12/28 01:27:33;;;;;;;137.20;50.65;;;6.50;99.90;;;;;;5064427;28;20040;-68
2021/12/28 01:30:00;;;;;;;130.18;49.08;;;6.60;99.90;;;;;;5067106;28;20065;-68
2021/12/28 01:32:26;;;;;;;112.97;48.08;;;6.60;99.90;;;;;;5064609;28;20480;-68
2021/12/28 01:34:51;;;;;;;136.27;50.67;;;6.60;99.90;;;;;;5064554;28;20043;-68
2021/12/28 01:37:17;;;;;;;171.13;51.72;;;6.60;99.90;;;;;;5069753;28;20481;-68
2021/12/28 01:39:43;;;;;;;117.40;46.08;;;6.60;99.90;;;;;;5064865;28;20398;-68
2021/12/28 01:42:08;;;;;;;192.40;56.17;;;6.60;99.90;;;;;;5065579;28;20052;-68
2021/12/28 01:44:35;;;;;;;152.13;48.33;;;6.60;99.90;;;;;;5066766;28;20040;-68
2021/12/28 01:47:02;;;;;;;142.82;52.17;;;6.60;99.90;;;;;;5062032;28;20037;-68
2021/12/28 01:49:28;;;;;;;271.92;63.83;;;6.60;99.90;;;;;;5061507;28;20040;-68
2021/12/28 01:51:54;;;;;;;218.70;58.50;;;6.60;99.90;;;;;;5058611;28;20044;-69
2021/12/28 01:54:20;;;;;;;226.68;58.72;;;6.60;99.90;;;;;;5058076;28;20144;-68
2021/12/28 01:56:47;;;;;;;159.77;52.50;;;6.60;99.90;;;;;;5060694;28;20029;-68
2021/12/28 01:59:16;;;;;;;168.05;53.47;;;6.70;99.90;;;;;;5065668;28;20033;-68
2021/12/28 02:01:42;;;;;;;182.90;52.20;;;6.70;99.90;;;;;;5064894;28;20053;-68
2021/12/28 02:04:17;;;;;;;175.70;51.15;;;6.70;99.90;;;;;;5064808;28;20067;-68
2021/12/28 02:06:43;;;;;;;186.60;53.65;;;6.70;99.90;;;;;;5063590;28;20344;-68
2021/12/28 02:09:10;;;;;;;307.48;66.05;;;6.70;99.90;;;;;;5067123;28;20707;-69
2021/12/28 02:11:36;;;;;;;248.55;60.03;;;6.70;99.90;;;;;;5062772;28;20040;-69
2021/12/28 02:14:05;;;;;;;306.67;64.10;;;6.70;99.90;;;;;;5066300;28;20461;-68
2021/12/28 02:16:33;;;;;;;188.80;53.00;;;6.70;99.90;;;;;;5065645;28;20070;-68
2021/12/28 02:18:58;;;;;;;275.33;63.03;;;6.70;99.90;;;;;;5067441;28;20068;-68
2021/12/28 02:21:25;;;;;;;229.88;56.35;;;6.70;99.90;;;;;;5064052;28;20086;-68
2021/12/28 02:23:51;;;;;;;240.90;58.65;;;6.70;99.90;;;;;;5064075;28;20582;-68
2021/12/28 02:26:17;;;;;;;296.30;62.10;;;6.70;99.90;;;;;;5064930;28;20210;-68
2021/12/28 02:28:43;;;;;;;170.35;52.45;;;6.80;99.90;;;;;;5063553;28;20562;-68
2021/12/28 02:31:09;;;;;;;146.60;50.80;;;6.80;99.90;;;;;;5066729;28;20059;-68
2021/12/28 02:33:35;;;;;;;227.10;54.60;;;6.80;99.90;;;;;;5064773;28;20495;-68
2021/12/28 02:36:03;;;;;;;239.73;59.13;;;6.80;99.90;;;;;;5063126;28;20032;-68
2021/12/28 02:38:30;;;;;;;202.88;55.65;;;6.80;99.90;;;;;;5062993;28;20045;-68
2021/12/28 02:40:56;;;;;;;194.48;52.53;;;6.90;99.90;;;;;;5067138;28;20048;-68
2021/12/28 02:43:23;;;;;;;223.40;58.85;;;6.80;99.90;;;;;;5062912;28;20047;-68
2021/12/28 02:45:53;;;;;;;248.15;59.30;;;6.80;99.90;;;;;;5065962;28;20036;-68
2021/12/28 02:48:20;;;;;;;157.80;52.75;;;6.80;99.90;;;;;;5063108;28;20124;-68
2021/12/28 02:50:50;;;;;;;185.18;54.65;;;6.80;99.90;;;;;;5064255;28;20075;-68
2021/12/28 02:53:18;;;;;;;199.82;57.35;;;6.80;99.90;;;;;;5059663;28;20447;-68
2021/12/28 02:55:44;;;;;;;157.93;51.10;;;6.80;99.90;;;;;;5058626;28;20418;-68
2021/12/28 02:58:16;;;;;;;156.07;50.65;;;6.90;99.90;;;;;;5064347;28;20087;-68
2021/12/28 03:00:48;;;;;;;185.27;54.92;;;6.90;99.90;;;;;;5063902;28;20380;-68
2021/12/28 03:03:23;;;;;;;172.30;55.17;;;6.90;99.90;;;;;;5065455;28;20565;-68
2021/12/28 03:05:51;;;;;;;135.55;49.90;;;6.90;99.90;;;;;;5059928;28;20158;-68
2021/12/28 03:08:19;;;;;;;187.88;55.92;;;7.00;99.90;;;;;;5060864;28;20087;-68
2021/12/28 03:10:46;;;;;;;139.20;51.13;;;7.00;99.90;;;;;;5067780;28;20064;-68
2021/12/28 03:13:18;;;;;;;107.53;46.00;;;7.00;99.90;;;;;;5058512;28;20056;-68
2021/12/28 03:15:44;;;;;;;154.90;50.42;;;7.00;99.90;;;;;;5062026;28;20044;-68
2021/12/28 03:18:09;;;;;;;133.57;47.92;;;7.00;99.90;;;;;;5061945;28;20051;-68
2021/12/28 03:20:36;;;;;;;173.13;54.15;;;7.00;99.90;;;;;;5064306;28;20419;-68
2021/12/28 03:23:02;;;;;;;97.63;42.85;;;7.00;99.90;;;;;;5061570;28;20064;-68
2021/12/28 03:25:28;;;;;;;118.13;44.70;;;7.10;99.90;;;;;;5067547;28;20047;-68
2021/12/28 03:27:54;;;;;;;119.88;46.25;;;7.10;99.90;;;;;;5061842;28;20425;-68
2021/12/28 03:30:19;;;;;;;88.95;41.30;;;7.10;99.90;;;;;;5062300;28;20049;-68
2021/12/28 03:32:46;;;;;;;91.00;40.90;;;7.10;99.90;;;;;;5067399;28;20044;-68
2021/12/28 03:35:14;;;;;;;96.85;40.95;;;7.10;99.90;;;;;;5064762;28;20512;-68
2021/12/28 03:37:40;;;;;;;90.55;40.75;;;7.10;99.90;;;;;;5057738;28;20048;-68
2021/12/28 03:40:09;;;;;;;109.32;43.63;;;7.10;99.90;;;;;;5060315;28;20036;-69
2021/12/28 03:42:35;;;;;;;99.20;41.20;;;7.20;99.90;;;;;;5063600;28;20037;-69
2021/12/28 03:45:00;;;;;;;100.65;41.63;;;7.20;99.90;;;;;;5065511;28;20046;-68
2021/12/28 03:47:26;;;;;;;84.95;37.65;;;7.20;99.90;;;;;;5060726;28;20110;-68
2021/12/28 03:49:52;;;;;;;83.78;38.88;;;7.20;99.90;;;;;;5066158;28;20559;-68
2021/12/28 03:52:18;;;;;;;104.43;42.20;;;7.10;99.90;;;;;;5065405;28;20103;-68
2021/12/28 03:54:44;;;;;;;127.68;43.42;;;7.10;99.90;;;;;;5059001;28;20047;-68
2021/12/28 03:57:10;;;;;;;85.20;38.50;;;7.10;99.90;;;;;;5056799;28;20053;-68
2021/12/28 03:59:35;;;;;;;97.53;41.10;;;7.10;99.90;;;;;;5063585;28;20037;-68
2021/12/28 04:02:01;;;;;;;105.00;42.28;;;7.10;99.90;;;;;;5066135;28;20059;-68
2021/12/28 04:04:27;;;;;;;93.60;39.85;;;7.10;99.90;;;;;;5067944;28;20036;-68
2021/12/28 04:06:52;;;;;;;105.20;41.05;;;7.10;99.90;;;;;;5061762;28;20556;-68
2021/12/28 04:09:24;;;;;;;95.10;41.35;;;7.10;99.90;;;;;;5062617;28;20548;-68
2021/12/28 04:11:50;;;;;;;85.22;39.60;;;7.00;99.90;;;;;;5058664;28;20044;-68
2021/12/28 04:14:15;;;;;;;110.05;43.08;;;7.00;99.90;;;;;;5067022;28;20653;-68
2021/12/28 04:16:41;;;;;;;110.85;43.20;;;7.00;99.90;;;;;;5064549;28;20079;-68
2021/12/28 04:19:07;;;;;;;81.35;40.53;;;7.00;99.90;;;;;;5064231;28;20154;-68
2021/12/28 04:21:34;;;;;;;124.05;44.17;;;7.00;99.90;;;;;;5068247;28;20128;-68
2021/12/28 04:24:01;;;;;;;86.20;38.63;;;7.00;99.90;;;;;;5063186;28;20361;-68
2021/12/28 04:26:27;;;;;;;113.25;44.92;;;7.00;99.90;;;;;;5063311;28;20607;-68
2021/12/28 04:28:53;;;;;;;76.53;38.38;;;7.00;99.90;;;;;;5067139;28;20059;-68
2021/12/28 04:31:19;;;;;;;83.75;39.25;;;7.00;99.90;;;;;;5048293;28;20586;-68
2021/12/28 04:33:45;;;;;;;88.70;40.30;;;7.00;99.90;;;;;;5064011;28;20036;-68
2021/12/28 04:36:14;;;;;;;78.20;37.63;;;7.00;99.90;;;;;;5066127;28;20041;-68
2021/12/28 04:38:41;;;;;;;79.07;37.50;;;7.10;99.90;;;;;;5063049;28;20055;-68
2021/12/28 04:41:09;;;;;;;92.32;38.40;;;7.00;99.90;;;;;;5068015;28;20060;-68
2021/12/28 04:43:35;;;;;;;65.70;34.03;;;7.00;99.90;;;;;;5053900;28;20047;-68
2021/12/28 04:46:01;;;;;;;61.00;32.70;;;7.00;99.90;;;;;;5060195;28;20106;-68
2021/12/28 04:48:27;;;;;;;54.88;31.25;;;7.00;99.90;;;;;;5061208;28;20416;-68
2021/12/28 04:50:53;;;;;;;54.35;31.48;;;6.90;99.90;;;;;;5066490;28;20399;-68
2021/12/28 04:53:19;;;;;;;55.90;29.92;;;6.90;99.90;;;;;;5064318;28;20487;-68
2021/12/28 04:55:47;;;;;;;76.63;34.55;;;7.00;99.90;;;;;;5059762;28;20093;-68
2021/12/28 04:58:13;;;;;;;79.45;35.10;;;6.90;99.90;;;;;;5069408;28;20044;-69
2021/12/28 05:00:41;;;;;;;65.97;33.60;;;6.80;99.90;;;;;;5069716;28;20166;-68
2021/12/28 05:03:07;;;;;;;72.60;35.03;;;6.80;99.90;;;;;;5064008;28;20037;-68
2021/12/28 05:05:33;;;;;;;75.45;35.17;;;6.70;99.90;;;;;;5064512;28;20501;-68
2021/12/28 05:07:59;;;;;;;83.90;35.75;;;6.60;99.90;;;;;;5065219;28;20060;-68
2021/12/28 05:10:25;;;;;;;78.53;35.33;;;6.50;99.90;;;;;;5063622;28;20047;-68
2021/12/28 05:12:51;;;;;;;96.78;37.13;;;6.50;99.90;;;;;;5067434;28;20079;-68
2021/12/28 05:15:18;;;;;;;89.97;36.05;;;6.40;99.90;;;;;;5068365;28;20115;-68
2021/12/28 05:17:44;;;;;;;67.40;32.58;;;6.40;99.90;;;;;;5063748;28;20040;-68
2021/12/28 05:20:10;;;;;;;84.78;35.80;;;6.40;99.90;;;;;;5061209;28;20075;-68
2021/12/28 05:22:37;;;;;;;76.55;34.88;;;6.30;99.90;;;;;;5063279;28;20036;-68
2021/12/28 05:25:03;;;;;;;63.08;30.45;;;6.30;99.90;;;;;;5064757;28;20047;-68
2021/12/28 05:27:29;;;;;;;63.00;31.05;;;6.30;99.90;;;;;;5059303;28;20168;-68
2021/12/28 05:29:56;;;;;;;66.82;31.27;;;6.30;99.90;;;;;;5069622;28;20115;-68
2021/12/28 05:32:25;;;;;;;68.55;31.38;;;6.30;99.90;;;;;;5060405;28;20264;-68
2021/12/28 05:34:57;;;;;;;62.45;28.88;;;6.30;99.90;;;;;;5065211;28;20093;-67
2021/12/28 05:37:27;;;;;;;64.20;30.60;;;6.30;99.90;;;;;;5064604;28;20489;-68
2021/12/28 05:40:00;;;;;;;62.33;29.77;;;6.10;99.90;;;;;;5063846;28;20428;-68
2021/12/28 05:42:30;;;;;;;69.45;30.90;;;6.20;99.90;;;;;;5067976;28;20058;-67
2021/12/28 05:44:56;;;;;;;69.18;30.55;;;6.20;99.90;;;;;;5064429;28;20044;-68
2021/12/28 05:47:21;;;;;;;77.75;30.83;;;6.20;99.90;;;;;;5069773;28;20446;-67
2021/12/28 05:49:47;;;;;;;71.80;29.92;;;6.20;99.90;;;;;;5063699;28;20048;-67
2021/12/28 05:52:13;;;;;;;61.47;27.88;;;6.10;99.90;;;;;;5056460;28;20064;-67
2021/12/28 05:54:39;;;;;;;64.03;28.38;;;6.10;99.90;;;;;;5067295;28;20071;-67
2021/12/28 05:57:05;;;;;;;64.68;27.63;;;6.10;99.90;;;;;;5058345;28;20037;-67
2021/12/28 05:59:30;;;;;;;58.08;26.33;;;6.00;99.90;;;;;;5059560;28;20037;-67
2021/12/28 06:01:56;;;;;;;57.42;26.85;;;6.00;99.90;;;;;;5062126;28;20485;-67
2021/12/28 06:04:22;;;;;;;60.63;25.20;;;6.00;99.90;;;;;;5058584;28;20082;-68
2021/12/28 06:06:48;;;;;;;55.72;26.85;;;5.90;99.90;;;;;;5042849;28;20035;-67
2021/12/28 06:09:14;;;;;;;57.25;27.08;;;5.90;99.90;;;;;;5065713;28;20040;-67
2021/12/28 06:11:39;;;;;;;69.38;26.65;;;5.80;99.90;;;;;;5063939;28;20107;-67
2021/12/28 06:14:05;;;;;;;69.68;27.13;;;5.90;99.90;;;;;;5060444;28;20068;-67
2021/12/28 06:16:32;;;;;;;56.50;26.67;;;5.90;99.90;;;;;;5064102;28;20024;-67
2021/12/28 06:18:57;;;;;;;55.88;26.48;;;5.80;99.90;;;;;;5065230;28;20033;-67
2021/12/28 06:21:25;;;;;;;63.53;26.13;;;5.90;99.90;;;;;;5062509;28;20158;-67
2021/12/28 06:23:51;;;;;;;60.75;26.83;;;5.80;99.90;;;;;;5056441;28;20079;-67
2021/12/28 06:26:16;;;;;;;55.75;25.27;;;5.80;99.90;;;;;;5065589;28;20036;-67
2021/12/28 06:28:42;;;;;;;58.65;26.13;;;5.80;99.90;;;;;;5061672;28;20115;-67
2021/12/28 06:31:08;;;;;;;76.55;27.52;;;5.80;99.90;;;;;;5063809;28;20048;-67
2021/12/28 06:33:33;;;;;;;56.05;24.60;;;5.80;99.90;;;;;;5062624;28;20048;-68
2021/12/28 06:35:59;;;;;;;58.70;25.92;;;5.80;99.90;;;;;;5059843;28;20084;-67
2021/12/28 06:38:25;;;;;;;62.90;25.35;;;5.80;99.90;;;;;;5062654;28;20079;-67
2021/12/28 06:40:50;;;;;;;50.55;24.02;;;5.80;99.90;;;;;;5045160;28;20060;-67
2021/12/28 06:43:16;;;;;;;56.47;26.67;;;5.80;99.90;;;;;;5056872;28;20048;-67
2021/12/28 06:45:42;;;;;;;49.45;24.38;;;5.80;99.90;;;;;;5059391;28;20413;-67
2021/12/28 06:48:08;;;;;;;55.20;25.35;;;5.90;99.90;;;;;;5060205;28;20343;-67
2021/12/28 06:50:34;;;;;;;43.03;22.98;;;5.80;99.90;;;;;;5061733;28;20099;-67
2021/12/28 06:52:59;;;;;;;47.40;24.13;;;5.90;99.90;;;;;;5061168;28;20134;-67
2021/12/28 06:55:25;;;;;;;48.38;22.83;;;5.90;99.90;;;;;;5063852;28;20124;-67
2021/12/28 06:57:51;;;;;;;49.35;23.33;;;5.90;99.90;;;;;;5062711;28;20437;-67
2021/12/28 07:00:18;;;;;;;45.38;23.08;;;5.90;99.90;;;;;;5059786;28;20039;-67
2021/12/28 07:02:45;;;;;;;38.03;20.15;;;5.90;99.90;;;;;;5058262;28;20040;-67
2021/12/28 07:05:12;;;;;;;40.90;21.17;;;5.90;99.90;;;;;;5058778;28;20067;-67
2021/12/28 07:07:38;;;;;;;42.42;20.77;;;5.90;99.90;;;;;;5055994;28;20551;-67
2021/12/28 07:10:06;;;;;;;43.88;20.17;;;6.00;99.90;;;;;;5054597;28;20389;-67
2021/12/28 07:12:32;;;;;;;45.42;19.48;;;5.90;99.90;;;;;;5059299;28;20052;-67
2021/12/28 07:14:58;;;;;;;42.90;18.75;;;6.00;99.90;;;;;;5060097;28;20116;-67
2021/12/28 07:17:26;;;;;;;40.70;19.40;;;6.00;99.90;;;;;;5065599;28;20115;-67
2021/12/28 07:19:53;;;;;;;32.25;17.52;;;6.00;99.90;;;;;;5061075;28;20103;-67
2021/12/28 07:22:19;;;;;;;40.97;17.27;;;6.00;99.90;;;;;;5052796;28;20175;-67
2021/12/28 07:24:44;;;;;;;34.95;17.88;;;6.00;99.90;;;;;;5056028;28;20115;-67
2021/12/28 07:27:10;;;;;;;46.13;17.55;;;6.00;99.90;;;;;;5063991;28;20045;-67
2021/12/28 07:29:36;;;;;;;40.67;16.48;;;6.10;99.90;;;;;;5057858;28;20032;-67
2021/12/28 07:32:03;;;;;;;33.13;15.75;;;6.10;99.90;;;;;;5062954;28;20107;-67
2021/12/28 07:34:31;;;;;;;30.77;14.50;;;6.10;99.90;;;;;;5059814;28;20152;-67
2021/12/28 07:36:56;;;;;;;33.08;15.10;;;6.20;99.90;;;;;;5054386;28;20519;-67
2021/12/28 07:39:22;;;;;;;33.78;16.35;;;6.20;99.90;;;;;;5059359;28;20159;-67
2021/12/28 07:41:48;;;;;;;29.98;14.05;;;6.30;99.90;;;;;;5060239;28;20105;-67
2021/12/28 07:44:14;;;;;;;29.40;15.07;;;6.30;99.90;;;;;;5056314;28;20041;-67
2021/12/28 07:46:39;;;;;;;31.52;13.85;;;6.30;99.90;;;;;;5058653;28;20040;-67
2021/12/28 07:49:05;;;;;;;31.73;13.18;;;6.30;99.90;;;;;;5065317;28;20049;-67
2021/12/28 07:51:32;;;;;;;28.98;13.95;;;6.30;99.90;;;;;;5053362;28;20041;-67
2021/12/28 07:53:58;;;;;;;24.13;12.80;;;6.30;99.90;;;;;;5061155;28;20036;-67
2021/12/28 07:56:23;;;;;;;30.38;13.25;;;6.30;99.90;;;;;;5056016;28;20041;-68
2021/12/28 07:58:49;;;;;;;28.98;14.13;;;6.40;99.90;;;;;;5060136;28;20072;-68
2021/12/28 08:01:15;;;;;;;27.88;12.68;;;6.30;99.90;;;;;;5064043;28;20134;-67
2021/12/28 08:03:41;;;;;;;32.38;13.88;;;6.40;99.90;;;;;;5062733;28;20037;-67
2021/12/28 08:06:06;;;;;;;30.70;12.73;;;6.40;99.90;;;;;;5057073;28;20048;-67
2021/12/28 08:08:32;;;;;;;27.52;12.32;;;6.40;99.90;;;;;;5058780;28;20037;-67
2021/12/28 08:10:58;;;;;;;25.80;12.27;;;6.40;99.90;;;;;;5067219;28;20043;-67
2021/12/28 08:13:24;;;;;;;32.33;12.10;;;6.40;99.90;;;;;;5058507;28;20184;-67
2021/12/28 08:15:50;;;;;;;27.38;12.75;;;6.50;99.90;;;;;;5059333;28;21145;-67
2021/12/28 08:18:15;;;;;;;26.70;11.63;;;6.50;99.90;;;;;;5055990;28;20044;-67
2021/12/28 08:20:41;;;;;;;26.67;11.10;;;6.50;99.90;;;;;;5062539;28;20580;-68
2021/12/28 08:23:07;;;;;;;26.10;11.23;;;6.60;99.90;;;;;;5059828;28;20059;-68
2021/12/28 08:25:33;;;;;;;24.63;10.73;;;6.50;99.90;;;;;;5060509;28;20055;-67
2021/12/28 08:28:02;;;;;;;20.63;9.93;;;6.50;99.90;;;;;;5064248;28;20059;-67
2021/12/28 08:30:28;;;;;;;23.30;10.90;;;6.60;99.90;;;;;;5061744;28;20036;-67
2021/12/28 08:32:54;;;;;;;23.77;10.95;;;6.60;99.90;;;;;;5065630;28;20484;-67
2021/12/28 08:35:20;;;;;;;24.10;10.88;;;6.60;99.90;;;;;;5065560;28;20403;-67
2021/12/28 08:37:46;;;;;;;26.60;11.15;;;6.70;99.90;;;;;;5057190;28;20496;-67
2021/12/28 08:40:13;;;;;;;24.85;10.13;;;6.60;99.90;;;;;;5064022;28;20033;-67
2021/12/28 08:42:39;;;;;;;22.67;10.93;;;6.60;99.90;;;;;;5064603;28;20041;-67
2021/12/28 08:45:06;;;;;;;22.80;10.35;;;6.70;99.90;;;;;;5063331;28;20119;-67
2021/12/28 08:47:33;;;;;;;25.35;11.15;;;6.60;99.90;;;;;;5063227;28;20033;-67
2021/12/28 08:49:59;;;;;;;31.98;10.88;;;6.60;99.90;;;;;;5059207;28;20064;-67
2021/12/28 08:52:25;;;;;;;23.60;9.52;;;6.70;99.90;;;;;;5055805;28;20080;-67
2021/12/28 08:54:51;;;;;;;26.42;10.52;;;6.70;99.90;;;;;;5061650;28;20041;-67
2021/12/28 08:57:19;;;;;;;25.13;10.05;;;6.60;99.90;;;;;;5060438;28;20075;-67
2021/12/28 08:59:45;;;;;;;29.45;10.18;;;6.60;99.90;;;;;;5062641;28;20048;-67
2021/12/28 09:02:11;;;;;;;25.45;10.07;;;6.70;99.90;;;;;;5058951;28;20094;-67
2021/12/28 09:04:39;;;;;;;28.67;9.40;;;6.60;99.90;;;;;;5061665;28;20028;-67
2021/12/28 09:07:05;;;;;;;25.92;10.07;;;6.60;99.90;;;;;;5061244;28;20067;-67
2021/12/28 09:09:31;;;;;;;26.05;9.10;;;6.70;99.90;;;;;;5066910;28;20083;-67
2021/12/28 09:11:57;;;;;;;23.50;8.68;;;6.70;99.90;;;;;;5063274;28;20036;-67
2021/12/28 09:14:23;;;;;;;20.33;8.52;;;6.70;99.90;;;;;;5060855;28;20033;-67
2021/12/28 09:16:48;;;;;;;26.38;9.15;;;6.70;99.90;;;;;;5071149;28;20032;-67
2021/12/28 09:19:14;;;;;;;28.60;9.02;;;6.80;99.90;;;;;;5062040;28;20029;-67
2021/12/28 09:21:40;;;;;;;31.17;8.82;;;6.80;99.90;;;;;;5060910;28;20724;-67
2021/12/28 09:24:06;;;;;;;23.85;7.70;;;6.90;99.90;;;;;;5070161;28;20041;-67
2021/12/28 09:26:35;;;;;;;20.98;7.25;;;6.90;99.90;;;;;;5060636;28;20048;-67
2021/12/28 09:29:01;;;;;;;28.25;7.40;;;7.00;99.90;;;;;;5069829;28;20036;-67
2021/12/28 09:31:26;;;;;;;22.23;7.40;;;7.10;99.90;;;;;;5068265;28;20333;-67
2021/12/28 09:33:52;;;;;;;27.40;7.68;;;7.10;99.90;;;;;;5060926;28;20047;-67
2021/12/28 09:36:18;;;;;;;30.65;7.30;;;7.20;99.90;;;;;;5045354;28;20558;-67
2021/12/28 09:38:45;;;;;;;18.23;6.30;;;7.20;99.90;;;;;;5061720;28;20051;-67
2021/12/28 09:41:12;;;;;;;21.48;6.28;;;7.30;99.90;;;;;;5067611;28;20060;-67
2021/12/28 09:43:38;;;;;;;17.70;5.90;;;7.30;99.90;;;;;;5063095;28;20048;-67
2021/12/28 09:46:05;;;;;;;23.40;6.05;;;7.40;99.90;;;;;;5065454;28;20051;-67
2021/12/28 09:48:31;;;;;;;20.73;6.40;;;7.40;99.90;;;;;;5061060;28;20082;-67
2021/12/28 09:50:58;;;;;;;27.05;7.13;;;7.50;99.90;;;;;;5064711;28;20059;-67
2021/12/28 09:53:23;;;;;;;23.33;6.38;;;7.50;99.90;;;;;;5059774;28;20040;-68
2021/12/28 09:55:49;;;;;;;27.33;5.93;;;7.50;99.90;;;;;;5067697;28;20082;-68
2021/12/28 09:58:15;;;;;;;25.77;6.40;;;7.60;99.90;;;;;;5067165;28;20076;-68
2021/12/28 10:00:41;;;;;;;19.67;5.30;;;7.60;99.90;;;;;;5061014;28;20305;-68
2021/12/28 10:03:07;;;;;;;23.85;6.13;;;7.60;99.90;;;;;;5067425;28;20388;-68
2021/12/28 10:05:33;;;;;;;25.08;6.10;;;7.70;99.90;;;;;;5066352;28;20098;-68
2021/12/28 10:08:02;;;;;;;16.55;5.28;;;7.70;99.90;;;;;;5063166;28;20493;-68
2021/12/28 10:10:32;;;;;;;28.88;6.47;;;7.70;99.90;;;;;;5067568;28;20107;-68
2021/12/28 10:13:05;;;;;;;21.27;6.22;;;7.70;99.90;;;;;;5063800;28;20048;-68
2021/12/28 10:15:34;;;;;;;24.05;7.32;;;7.70;99.90;;;;;;5062547;28;20033;-68
2021/12/28 10:18:06;;;;;;;20.58;7.15;;;7.70;99.90;;;;;;5059464;28;20071;-68
2021/12/28 10:20:41;;;;;;;26.92;7.63;;;7.70;99.90;;;;;;5068568;28;20495;-68
2021/12/28 10:23:10;;;;;;;24.38;7.53;;;7.80;99.90;;;;;;5060512;28;20048;-68
2021/12/28 10:25:39;;;;;;;22.05;7.50;;;7.80;99.90;;;;;;5062412;28;20049;-68
2021/12/28 10:28:09;;;;;;;23.15;7.85;;;7.80;99.90;;;;;;5059803;28;20037;-68
2021/12/28 10:30:42;;;;;;;23.67;7.10;;;7.70;99.90;;;;;;5063087;28;20404;-68
2021/12/28 10:33:12;;;;;;;21.70;7.45;;;7.70;99.90;;;;;;5064911;28;20598;-68
2021/12/28 10:35:42;;;;;;;21.20;7.68;;;7.80;99.90;;;;;;5063889;28;20036;-68
2021/12/28 10:38:14;;;;;;;23.35;6.90;;;7.70;99.90;;;;;;5056696;28;20079;-68
2021/12/28 10:40:49;;;;;;;24.38;7.95;;;7.80;99.90;;;;;;5061160;28;20489;-68
2021/12/28 10:43:24;;;;;;;22.67;7.35;;;7.90;99.90;;;;;;5061225;28;20044;-68
2021/12/28 10:45:54;;;;;;;23.50;9.10;;;7.90;99.90;;;;;;5056691;28;20067;-68
2021/12/28 10:48:21;;;;;;;23.77;8.38;;;7.90;99.90;;;;;;5064643;28;20044;-68
2021/12/28 10:50:59;;;;;;;19.48;8.90;;;7.90;99.90;;;;;;5064104;28;20432;-67
2021/12/28 10:53:35;;;;;;;20.00;8.38;;;8.00;99.90;;;;;;5061139;28;20043;-68
2021/12/28 10:56:01;;;;;;;22.38;8.75;;;8.00;99.90;;;;;;5063766;28;20053;-68
2021/12/28 10:58:31;;;;;;;27.05;9.25;;;8.00;99.90;;;;;;5057567;28;20407;-68
2021/12/28 11:01:03;;;;;;;18.90;9.25;;;8.10;99.90;;;;;;5065799;28;20224;-68
2021/12/28 11:03:34;;;;;;;24.85;10.43;;;8.10;99.90;;;;;;5060622;28;20131;-68
2021/12/28 11:06:08;;;;;;;23.73;10.55;;;8.00;99.90;;;;;;5061033;28;20089;-68
2021/12/28 11:08:34;;;;;;;;;;;8.10;99.90;;;;;;5060245;28;20052;-68
2021/12/28 11:11:09;;;;;;;23.00;10.13;;;8.00;99.90;;;;;;5057289;28;20360;-68
2021/12/28 11:13:36;;;;;;;34.08;11.88;;;8.10;99.90;;;;;;5057655;28;20123;-67
2021/12/28 11:16:05;;;;;;;21.42;11.00;;;8.10;99.90;;;;;;5062736;28;20040;-67
2021/12/28 11:18:34;;;;;;;26.25;11.50;;;8.10;99.90;;;;;;5059528;28;20041;-67
2021/12/28 11:21:22;;;;;;;21.02;10.35;;;8.10;99.90;;;;;;5059454;28;20575;-67
2021/12/28 11:23:50;;;;;;;25.10;12.52;;;8.20;99.90;;;;;;5060391;28;20086;-68
2021/12/28 11:26:37;;;;;;;25.92;12.52;;;8.20;99.90;;;;;;5062704;28;20052;-67
2021/12/28 11:29:11;;;;;;;21.45;10.43;;;8.20;99.90;;;;;;5058825;28;20073;-67
2021/12/28 11:31:45;;;;;;;23.50;11.82;;;8.20;99.90;;;;;;5058540;28;20036;-68
2021/12/28 11:34:31;;;;;;;15.48;10.30;;;8.10;99.90;;;;;;5048832;28;20053;-67
2021/12/28 11:37:03;;;;;;;20.80;10.50;;;8.20;99.90;;;;;;5054516;28;20119;-67
2021/12/28 11:39:35;;;;;;;18.58;10.15;;;8.10;99.90;;;;;;5061398;28;20152;-68
2021/12/28 11:42:02;;;;;;;17.83;9.95;;;8.10;99.90;;;;;;5061025;28;20059;-68
2021/12/28 11:44:29;;;;;;;19.45;9.00;;;8.10;99.90;;;;;;5051323;28;20076;-67
2021/12/28 11:46:57;;;;;;;16.73;8.80;;;8.10;99.90;;;;;;5056459;28;20045;-67
2021/12/28 11:49:27;;;;;;;15.43;8.65;;;8.10;99.90;;;;;;5060166;28;20108;-67
2021/12/28 11:51:54;;;;;;;15.35;9.00;;;8.10;99.90;;;;;;5057709;28;20039;-67
2021/12/28 11:54:22;;;;;;;15.10;8.98;;;8.10;99.90;;;;;;5053188;28;20099;-67
2021/12/28 11:56:52;;;;;;;16.70;9.45;;;8.10;99.90;;;;;;5062604;28;20082;-68
2021/12/28 11:59:20;;;;;;;12.70;8.35;;;8.10;99.90;;;;;;5057272;28;20037;-67
2021/12/28 12:01:50;;;;;;;15.23;8.68;;;8.20;99.90;;;;;;5061644;28;20048;-67
2021/12/28 12:04:31;;;;;;;13.85;8.77;;;8.20;99.90;;;;;;5058073;28;20045;-67
2021/12/28 12:07:05;;;;;;;15.30;8.40;;;8.20;99.90;;;;;;5054827;28;20118;-67
2021/12/28 12:09:33;;;;;;;16.95;9.57;;;8.10;99.90;;;;;;5064149;28;20044;-67
2021/12/28 12:12:07;;;;;;;18.83;11.02;;;8.10;99.90;;;;;;5059207;28;20479;-68
2021/12/28 12:14:52;;;;;;;16.20;10.15;;;8.20;99.90;;;;;;5059852;28;20464;-68
2021/12/28 12:17:37;;;;;;;18.98;10.82;;;8.30;99.90;;;;;;5060650;28;20048;-68
2021/12/28 12:20:03;;;;;;;15.65;10.77;;;8.20;99.90;;;;;;5059324;28;20052;-68
2021/12/28 12:22:32;;;;;;;15.80;10.77;;;8.30;99.90;;;;;;5058806;28;20044;-68
2021/12/28 12:24:58;;;;;;;18.98;10.73;;;8.30;99.90;;;;;;5062270;28;20033;-68
2021/12/28 12:27:50;;;;;;;21.77;12.05;;;8.20;99.90;;;;;;5058561;28;20029;-68
2021/12/28 12:30:24;;;;;;;25.65;12.95;;;8.30;99.90;;;;;;5058073;28;20084;-67
2021/12/28 12:33:05;;;;;;;;;;;8.30;99.90;;;;;;5060677;28;20047;-67
2021/12/28 12:35:38;;;;;;;17.02;10.27;;;8.30;99.90;;;;;;5063383;28;19969;-68
2021/12/28 12:38:24;;;;;;;18.80;11.48;;;8.30;99.90;;;;;;5059536;28;20033;-68
2021/12/28 12:41:05;;;;;;;24.60;13.23;;;8.30;99.90;;;;;;5050645;28;20178;-68